Terminal Aerodrome Forecast
Issued by NWS

Home | Current Version | Previous Version | Text Only | Print | Product List | Glossary On
Versions: 1 2 3 4 5 6 7 8 9 10 11 12 13 14 15 16 17
000
FTUS45 KFGZ 130500
TAFSEZ
TAF
KSEZ 130538Z 1306/1406 05010KT P6SM SCT080 BKN110
      TEMPO 1306/1308 VRB10G15KT 6SM -SHRA OVC080
     FM130900 04006KT P6SM FEW080 SCT110
     FM131700 10009KT P6SM BKN060 BKN080
      TEMPO 1320/1324 VRB20G35KT 5SM TSRA BKN050CB OVC060
     FM140300 04009KT P6SM BKN080=

USA.gov is the U.S. government's official web portal to all federal, state and local government web resources and services.